Machida, Japan
Current Conditions -  °F | °C
As of 2:58 PM on Monday 24 Nov 2014 (Local Time) from RJTY Reporting Station
Broken Clouds Broken Clouds  
Wind Chill: 57°   Ceiling: 3100
Heat Index: 57°   Visibility: 10mi
Dew Point: 44°   Wind: 5mph
Humidity: 62%   Direction: 50°NE
Pressure: 30.14"   Gusts: NA
Location:  35.56°N, 139.43°E
Report Text: RJTY 240558Z AUTO 05004KT 10SM BKN031 14/07 A3014 RMK AO2 SLP211 T01410068 10146 20117 57018
Loading
Personal Weather Stations






























Interactive Weather Map New forecast layout! Learn more

10-Day Weather Forecast

Advertisements
Track Severe Weather on mobile